Time,TemperatureF,DewpointF,PressureIn,WindDirection,WindDirectionDegrees,WindSpeedMPH,WindSpeedGustMPH,Humidity,HourlyPrecipIn,Conditions,Clouds,dailyrainin,SoftwareType,DateUTC
2013-01-20 00:02:00,24.0,2.0,30.31,North,1,6.0,8.0,37,0.00,,,0.00,,2013-01-20 07:02:00,
2013-01-20 00:11:00,24.0,2.0,30.31,North,1,6.0,8.0,37,0.00,,,0.00,,2013-01-20 07:11:00,
2013-01-20 00:22:00,24.0,1.0,30.30,North,353,6.0,8.0,36,0.00,,,0.00,,2013-01-20 07:22:00,
2013-01-20 00:32:00,24.0,0.0,30.30,North,357,7.0,9.0,35,0.00,,,0.00,,2013-01-20 07:32:00,
2013-01-20 00:42:00,24.0,0.0,30.30,North,357,7.0,9.0,35,0.00,,,0.00,,2013-01-20 07:42:00,
2013-01-20 00:52:00,24.0,0.0,30.30,North,355,6.0,9.0,34,0.00,,,0.00,,2013-01-20 07:52:00,
2013-01-20 01:01:00,24.0,-1.0,30.30,North,352,6.0,9.0,33,0.00,,,0.00,,2013-01-20 08:01:00,
2013-01-20 01:11:00,24.0,-1.0,30.30,North,352,6.0,9.0,33,0.00,,,0.00,,2013-01-20 08:11:00,
2013-01-20 01:22:00,23.0,-2.0,30.30,North,352,5.0,8.0,33,0.00,,,0.00,,2013-01-20 08:22:00,
2013-01-20 01:32:00,23.0,-2.0,30.30,North,355,5.0,7.0,33,0.00,,,0.00,,2013-01-20 08:32:00,
2013-01-20 01:42:00,23.0,-2.0,30.30,North,355,5.0,7.0,33,0.00,,,0.00,,2013-01-20 08:42:00,
2013-01-20 01:52:00,23.0,-2.0,30.29,NNW,348,5.0,7.0,33,0.00,,,0.00,,2013-01-20 08:52:00,
2013-01-20 02:02:00,23.0,-1.0,30.29,North,0,1.0,3.0,35,0.00,,,0.00,,2013-01-20 09:02:00,
2013-01-20 02:11:00,23.0,-1.0,30.29,North,0,1.0,3.0,35,0.00,,,0.00,,2013-01-20 09:11:00,
2013-01-20 02:22:00,22.0,-3.0,30.30,North,357,3.0,5.0,33,0.00,,,0.00,,2013-01-20 09:22:00,
2013-01-20 02:32:00,22.0,-2.0,30.30,North,358,2.0,3.0,34,0.00,,,0.00,,2013-01-20 09:32:00,
2013-01-20 02:42:00,22.0,-2.0,30.30,North,358,2.0,3.0,34,0.00,,,0.00,,2013-01-20 09:42:00,
2013-01-20 02:52:00,22.0,-3.0,30.29,North,4,3.0,6.0,32,0.00,,,0.00,,2013-01-20 09:52:00,
2013-01-20 03:02:00,22.0,-3.0,30.29,North,359,5.0,8.0,32,0.00,,,0.00,,2013-01-20 10:02:00,
2013-01-20 03:11:00,22.0,-3.0,30.29,North,359,5.0,8.0,32,0.00,,,0.00,,2013-01-20 10:11:00,
2013-01-20 03:22:00,22.0,-4.0,30.29,North,357,5.0,5.0,31,0.00,,,0.00,,2013-01-20 10:22:00,
2013-01-20 03:32:00,22.0,-3.0,30.29,North,5,3.0,7.0,33,0.00,,,0.00,,2013-01-20 10:32:00,
2013-01-20 03:42:00,22.0,-3.0,30.29,North,5,3.0,7.0,33,0.00,,,0.00,,2013-01-20 10:42:00,
2013-01-20 03:52:00,22.0,-5.0,30.29,North,355,5.0,8.0,30,0.00,,,0.00,,2013-01-20 10:52:00,
2013-01-20 04:02:00,22.0,-6.0,30.29,North,354,5.0,8.0,28,0.00,,,0.00,,2013-01-20 11:02:00,
2013-01-20 04:11:00,22.0,-5.0,30.28,North,5,6.0,7.0,29,0.00,,,0.00,,2013-01-20 11:11:00,
2013-01-20 04:22:00,22.0,-5.0,30.28,North,5,6.0,7.0,29,0.00,,,0.00,,2013-01-20 11:22:00,
2013-01-20 04:32:00,21.0,-6.0,30.28,North,358,5.0,5.0,29,0.00,,,0.00,,2013-01-20 11:32:00,
2013-01-20 04:42:00,21.0,-6.0,30.28,North,358,5.0,5.0,29,0.00,,,0.00,,2013-01-20 11:42:00,
2013-01-20 04:53:00,21.0,-6.0,30.27,North,4,6.0,9.0,29,0.00,,,0.00,,2013-01-20 11:53:00,
2013-01-20 05:02:00,21.0,-6.0,30.27,North,350,5.0,7.0,29,0.00,,,0.00,,2013-01-20 12:02:00,
2013-01-20 05:11:00,21.0,-6.0,30.27,North,350,5.0,7.0,29,0.00,,,0.00,,2013-01-20 12:11:00,
2013-01-20 05:22:00,21.0,-6.0,30.27,North,358,5.0,8.0,29,0.00,,,0.00,,2013-01-20 12:22:00,
2013-01-20 05:32:00,21.0,-7.0,30.27,North,356,6.0,8.0,28,0.00,,,0.00,,2013-01-20 12:32:00,
2013-01-20 05:42:00,21.0,-7.0,30.27,North,356,6.0,8.0,28,0.00,,,0.00,,2013-01-20 12:42:00,
2013-01-20 05:53:00,21.0,-7.0,30.27,North,355,3.0,8.0,28,0.00,,,0.00,,2013-01-20 12:53:00,
2013-01-20 06:02:00,21.0,-8.0,30.27,North,354,3.0,7.0,27,0.00,,,0.00,,2013-01-20 13:02:00,
2013-01-20 06:11:00,21.0,-8.0,30.27,North,354,3.0,7.0,27,0.00,,,0.00,,2013-01-20 13:11:00,
2013-01-20 06:22:00,19.0,-5.0,30.27,NNW,347,2.0,5.0,33,0.00,,,0.00,,2013-01-20 13:22:00,
2013-01-20 06:32:00,20.0,-9.0,30.27,North,355,6.0,10.0,27,0.00,,,0.00,,2013-01-20 13:32:00,
2013-01-20 06:42:00,20.0,-9.0,30.27,North,355,6.0,10.0,27,0.00,,,0.00,,2013-01-20 13:42:00,
2013-01-20 06:52:00,20.0,-9.0,30.27,North,0,3.0,5.0,27,0.00,,,0.00,,2013-01-20 13:52:00,
2013-01-20 07:01:00,20.0,-9.0,30.27,North,1,5.0,7.0,27,0.00,,,0.00,,2013-01-20 14:01:00,
2013-01-20 07:11:00,20.0,-9.0,30.27,North,1,5.0,7.0,27,0.00,,,0.00,,2013-01-20 14:11:00,
2013-01-20 07:22:00,20.0,-8.0,30.26,North,353,6.0,9.0,28,0.00,,,0.00,,2013-01-20 14:22:00,
2013-01-20 07:32:00,20.0,-9.0,30.27,North,359,6.0,9.0,27,0.00,,,0.00,,2013-01-20 14:32:00,
2013-01-20 07:42:00,20.0,-9.0,30.27,North,359,6.0,9.0,27,0.00,,,0.00,,2013-01-20 14:42:00,
2013-01-20 07:53:00,20.0,-9.0,30.26,North,8,3.0,5.0,27,0.00,,,0.00,,2013-01-20 14:53:00,
2013-01-20 08:02:00,20.0,-9.0,30.27,North,358,3.0,7.0,27,0.00,,,0.00,,2013-01-20 15:02:00,
2013-01-20 08:12:00,20.0,-9.0,30.27,North,358,3.0,7.0,27,0.00,,,0.00,,2013-01-20 15:12:00,
2013-01-20 08:22:00,22.0,-9.0,30.26,North,353,8.0,10.0,24,0.00,,,0.00,,2013-01-20 15:22:00,
2013-01-20 08:32:00,22.0,-9.0,30.25,North,1,8.0,12.0,24,0.00,,,0.00,,2013-01-20 15:32:00,
2013-01-20 08:42:00,22.0,-9.0,30.25,North,1,8.0,12.0,24,0.00,,,0.00,,2013-01-20 15:42:00,
2013-01-20 08:53:00,23.0,-8.0,30.26,North,10,3.0,8.0,24,0.00,,,0.00,,2013-01-20 15:53:00,
2013-01-20 09:02:00,24.0,-7.0,30.26,NNW,331,1.0,6.0,24,0.00,,,0.00,,2013-01-20 16:02:00,
2013-01-20 09:12:00,24.0,-7.0,30.26,NNW,331,1.0,6.0,24,0.00,,,0.00,,2013-01-20 16:12:00,
2013-01-20 09:22:00,25.0,-7.0,30.26,NNE,27,1.0,3.0,24,0.00,,,0.00,,2013-01-20 16:22:00,
2013-01-20 09:32:00,27.0,-5.0,30.26,NNE,13,0.0,0.0,24,0.00,,,0.00,,2013-01-20 16:32:00,
2013-01-20 09:42:00,27.0,-5.0,30.26,NNE,13,0.0,0.0,24,0.00,,,0.00,,2013-01-20 16:42:00,
2013-01-20 09:52:00,30.0,0.0,30.26,ENE,58,1.0,2.0,27,0.00,,,0.00,,2013-01-20 16:52:00,
2013-01-20 10:02:00,32.0,2.0,30.26,ENE,59,2.0,3.0,27,0.00,,,0.00,,2013-01-20 17:02:00,
2013-01-20 10:12:00,32.0,2.0,30.26,ENE,59,2.0,3.0,27,0.00,,,0.00,,2013-01-20 17:12:00,
2013-01-20 10:22:00,34.0,2.0,30.26,ENE,72,1.0,2.0,25,0.00,,,0.00,,2013-01-20 17:22:00,
2013-01-20 10:32:00,36.0,3.0,30.26,East,86,2.0,3.0,24,0.00,,,0.00,,2013-01-20 17:32:00,
2013-01-20 10:42:00,36.0,3.0,30.26,East,86,2.0,3.0,24,0.00,,,0.00,,2013-01-20 17:42:00,
2013-01-20 10:52:00,39.0,5.0,30.25,East,92,3.0,3.0,24,0.00,,,0.00,,2013-01-20 17:52:00,
2013-01-20 11:02:00,41.0,7.0,30.25,East,98,3.0,6.0,24,0.00,,,0.00,,2013-01-20 18:02:00,
2013-01-20 11:12:00,42.0,7.0,30.25,SE,138,3.0,5.0,23,0.00,,,0.00,,2013-01-20 18:12:00,
2013-01-20 11:22:00,42.0,7.0,30.25,SE,138,3.0,5.0,23,0.00,,,0.00,,2013-01-20 18:22:00,
2013-01-20 11:32:00,43.0,6.0,30.25,SE,140,5.0,6.0,21,0.00,,,0.00,,2013-01-20 18:32:00,
2013-01-20 11:42:00,43.0,6.0,30.25,SE,140,5.0,6.0,21,0.00,,,0.00,,2013-01-20 18:42:00,
2013-01-20 11:53:00,44.0,7.0,30.24,SE,131,5.0,5.0,21,0.00,,,0.00,,2013-01-20 18:53:00,
2013-01-20 12:02:00,45.0,6.0,30.24,SE,127,5.0,6.0,20,0.00,,,0.00,,2013-01-20 19:02:00,
2013-01-20 12:11:00,45.0,6.0,30.24,SE,127,5.0,6.0,20,0.00,,,0.00,,2013-01-20 19:11:00,
2013-01-20 12:22:00,46.0,8.0,30.23,ESE,123,5.0,6.0,21,0.00,,,0.00,,2013-01-20 19:22:00,
2013-01-20 12:32:00,46.0,7.0,30.22,SE,124,2.0,6.0,20,0.00,,,0.00,,2013-01-20 19:32:00,
2013-01-20 12:42:00,46.0,7.0,30.22,SE,124,2.0,6.0,20,0.00,,,0.00,,2013-01-20 19:42:00,
2013-01-20 12:52:00,46.0,8.0,30.21,SE,128,3.0,6.0,21,0.00,,,0.00,,2013-01-20 19:52:00,
2013-01-20 13:02:00,47.0,8.0,30.21,SE,128,5.0,8.0,20,0.00,,,0.00,,2013-01-20 20:02:00,
2013-01-20 13:12:00,47.0,8.0,30.21,SE,128,5.0,8.0,20,0.00,,,0.00,,2013-01-20 20:12:00,
2013-01-20 13:22:00,47.0,9.0,30.20,SE,139,5.0,7.0,21,0.00,,,0.00,,2013-01-20 20:22:00,
2013-01-20 13:32:00,47.0,9.0,30.19,ESE,121,5.0,6.0,21,0.00,,,0.00,,2013-01-20 20:32:00,
2013-01-20 13:42:00,47.0,9.0,30.19,ESE,121,5.0,6.0,21,0.00,,,0.00,,2013-01-20 20:42:00,
2013-01-20 13:53:00,47.0,10.0,30.19,SE,137,6.0,7.0,22,0.00,,,0.00,,2013-01-20 20:53:00,
2013-01-20 14:02:00,47.0,11.0,30.19,SE,136,8.0,9.0,23,0.00,,,0.00,,2013-01-20 21:02:00,
2013-01-20 14:12:00,47.0,11.0,30.19,SE,136,8.0,9.0,23,0.00,,,0.00,,2013-01-20 21:12:00,
2013-01-20 14:22:00,45.0,9.0,30.19,SSE,162,5.0,8.0,23,0.00,,,0.00,,2013-01-20 21:22:00,
2013-01-20 14:32:00,45.0,11.0,30.19,SE,145,7.0,10.0,25,0.00,,,0.00,,2013-01-20 21:32:00,
2013-01-20 14:42:00,45.0,11.0,30.19,SE,145,7.0,10.0,25,0.00,,,0.00,,2013-01-20 21:42:00,
2013-01-20 14:53:00,44.0,10.0,30.19,South,175,3.0,7.0,24,0.00,,,0.00,,2013-01-20 21:53:00,
2013-01-20 15:02:00,43.0,10.0,30.19,SSE,155,7.0,10.0,26,0.00,,,0.00,,2013-01-20 22:02:00,
2013-01-20 15:12:00,43.0,10.0,30.19,SSE,155,7.0,10.0,26,0.00,,,0.00,,2013-01-20 22:12:00,
2013-01-20 15:22:00,43.0,10.0,30.19,SE,128,3.0,5.0,26,0.00,,,0.00,,2013-01-20 22:22:00,
2013-01-20 15:32:00,43.0,10.0,30.19,SSE,167,5.0,6.0,25,0.00,,,0.00,,2013-01-20 22:32:00,
2013-01-20 15:42:00,43.0,10.0,30.19,SSE,167,5.0,6.0,25,0.00,,,0.00,,2013-01-20 22:42:00,
2013-01-20 15:53:00,43.0,9.0,30.19,SSE,157,5.0,9.0,24,0.00,,,0.00,,2013-01-20 22:53:00,
2013-01-20 16:02:00,42.0,10.0,30.20,SSE,161,1.0,5.0,27,0.00,,,0.00,,2013-01-20 23:02:00,
2013-01-20 16:12:00,42.0,10.0,30.20,SSE,161,1.0,5.0,27,0.00,,,0.00,,2013-01-20 23:12:00,
2013-01-20 16:22:00,42.0,10.0,30.20,SSE,168,2.0,3.0,27,0.00,,,0.00,,2013-01-20 23:22:00,
2013-01-20 16:32:00,40.0,10.0,30.20,SSE,168,1.0,1.0,28,0.00,,,0.00,,2013-01-20 23:32:00,
2013-01-20 16:42:00,40.0,10.0,30.20,SSE,168,1.0,1.0,28,0.00,,,0.00,,2013-01-20 23:42:00,
2013-01-20 16:53:00,35.0,7.0,30.20,SSE,168,0.0,0.0,30,0.00,,,0.00,,2013-01-20 23:53:00,
2013-01-20 17:02:00,34.0,9.0,30.21,SSE,168,0.0,0.0,35,0.00,,,0.00,,2013-01-21 00:02:00,
2013-01-20 17:12:00,34.0,9.0,30.21,SSE,168,0.0,0.0,35,0.00,,,0.00,,2013-01-21 00:12:00,
2013-01-20 17:22:00,31.0,11.0,30.21,South,169,0.0,0.0,43,0.00,,,0.00,,2013-01-21 00:22:00,
2013-01-20 17:32:00,30.0,11.0,30.22,SSE,168,0.0,1.0,44,0.00,,,0.00,,2013-01-21 00:32:00,
2013-01-20 17:42:00,30.0,11.0,30.22,SSE,168,0.0,1.0,44,0.00,,,0.00,,2013-01-21 00:42:00,
2013-01-20 17:53:00,27.0,7.0,30.22,South,169,0.0,0.0,42,0.00,,,0.00,,2013-01-21 00:53:00,
2013-01-20 18:02:00,27.0,8.0,30.22,NNE,28,0.0,0.0,43,0.00,,,0.00,,2013-01-21 01:02:00,
2013-01-20 18:12:00,27.0,8.0,30.22,NNE,28,0.0,0.0,43,0.00,,,0.00,,2013-01-21 01:12:00,
2013-01-20 18:22:00,26.0,8.0,30.22,NNE,28,0.0,0.0,46,0.00,,,0.00,,2013-01-21 01:22:00,
2013-01-20 18:32:00,25.0,8.0,30.22,NNE,28,0.0,0.0,48,0.00,,,0.00,,2013-01-21 01:32:00,
2013-01-20 18:42:00,25.0,8.0,30.22,NNE,28,0.0,0.0,48,0.00,,,0.00,,2013-01-21 01:42:00,
2013-01-20 18:53:00,24.0,8.0,30.22,NNE,28,0.0,0.0,49,0.00,,,0.00,,2013-01-21 01:53:00,
2013-01-20 19:02:00,24.0,8.0,30.22,NNE,28,0.0,0.0,49,0.00,,,0.00,,2013-01-21 02:02:00,
2013-01-20 19:12:00,24.0,8.0,30.22,NNE,28,0.0,0.0,49,0.00,,,0.00,,2013-01-21 02:12:00,
2013-01-20 19:22:00,24.0,9.0,30.22,NNE,18,0.0,1.0,51,0.00,,,0.00,,2013-01-21 02:22:00,
2013-01-20 19:32:00,24.0,5.0,30.22,North,5,1.0,3.0,43,0.00,,,0.00,,2013-01-21 02:32:00,
2013-01-20 19:42:00,24.0,5.0,30.22,North,5,1.0,3.0,43,0.00,,,0.00,,2013-01-21 02:42:00,
2013-01-20 19:53:00,24.0,4.0,30.23,North,359,1.0,2.0,42,0.00,,,0.00,,2013-01-21 02:53:00,
2013-01-20 20:02:00,24.0,4.0,30.23,NNW,342,3.0,3.0,42,0.00,,,0.00,,2013-01-21 03:02:00,
2013-01-20 20:11:00,24.0,4.0,30.23,NNW,342,3.0,3.0,42,0.00,,,0.00,,2013-01-21 03:11:00,
2013-01-20 20:22:00,24.0,3.0,30.22,NNW,339,3.0,7.0,40,0.00,,,0.00,,2013-01-21 03:22:00,
2013-01-20 20:32:00,25.0,2.0,30.23,North,358,3.0,7.0,37,0.00,,,0.00,,2013-01-21 03:32:00,
2013-01-20 20:42:00,25.0,2.0,30.23,North,358,3.0,7.0,37,0.00,,,0.00,,2013-01-21 03:42:00,
2013-01-20 20:53:00,25.0,-1.0,30.23,North,351,6.0,7.0,31,0.00,,,0.00,,2013-01-21 03:53:00,
2013-01-20 21:02:00,26.0,-1.0,30.23,North,349,5.0,10.0,30,0.00,,,0.00,,2013-01-21 04:02:00,
2013-01-20 21:11:00,26.0,-1.0,30.23,North,349,5.0,10.0,30,0.00,,,0.00,,2013-01-21 04:11:00,
2013-01-20 21:22:00,26.0,-3.0,30.23,North,356,3.0,9.0,28,0.00,,,0.00,,2013-01-21 04:22:00,
2013-01-20 21:32:00,26.0,-3.0,30.23,NNW,348,2.0,3.0,27,0.00,,,0.00,,2013-01-21 04:32:00,
2013-01-20 21:42:00,26.0,-3.0,30.23,NNW,348,2.0,3.0,27,0.00,,,0.00,,2013-01-21 04:42:00,
2013-01-20 21:53:00,26.0,-4.0,30.23,North,358,3.0,5.0,26,0.00,,,0.00,,2013-01-21 04:53:00,
2013-01-20 22:03:00,26.0,-5.0,30.23,North,351,6.0,8.0,25,0.00,,,0.00,,2013-01-21 05:03:00,
2013-01-20 22:12:00,26.0,-5.0,30.23,North,351,6.0,8.0,25,0.00,,,0.00,,2013-01-21 05:12:00,
2013-01-20 22:22:00,26.0,-5.0,30.23,North,353,5.0,7.0,25,0.00,,,0.00,,2013-01-21 05:22:00,
2013-01-20 22:32:00,26.0,-5.0,30.24,North,351,5.0,7.0,25,0.00,,,0.00,,2013-01-21 05:32:00,
2013-01-20 22:42:00,26.0,-5.0,30.24,North,351,5.0,7.0,25,0.00,,,0.00,,2013-01-21 05:42:00,
2013-01-20 22:53:00,26.0,-5.0,30.24,North,355,3.0,5.0,25,0.00,,,0.00,,2013-01-21 05:53:00,
2013-01-20 23:02:00,26.0,-4.0,30.24,North,353,3.0,5.0,26,0.00,,,0.00,,2013-01-21 06:02:00,
2013-01-20 23:12:00,26.0,-4.0,30.24,North,353,3.0,5.0,26,0.00,,,0.00,,2013-01-21 06:12:00,
2013-01-20 23:22:00,26.0,-4.0,30.24,NNW,348,6.0,9.0,26,0.00,,,0.00,,2013-01-21 06:22:00,
2013-01-20 23:32:00,26.0,-4.0,30.24,NNW,348,3.0,6.0,26,0.00,,,0.00,,2013-01-21 06:32:00,
2013-01-20 23:42:00,26.0,-4.0,30.24,NNW,348,3.0,6.0,26,0.00,,,0.00,,2013-01-21 06:42:00,
2013-01-20 23:53:00,25.0,-4.0,30.24,NNW,348,3.0,3.0,27,0.00,,,0.00,,2013-01-21 06:53:00,